Time;durP1;ratioP1;P1;durP2;ratioP2;P2;SDS_P1;SDS_P2;PMS_P1;PMS_P2;Temp;Humidity;BMP_temperature;BMP_pressure;BME280_temperature;BME280_humidity;BME280_pressure;Samples;Min_cycle;Max_cycle;Signal;HPM_P1;HPM_P2
2024/01/07 00:02:00;;;;;;;119.07;109.65;;;;;;;;;;6128653;23;20033;-87
2024/01/07 00:04:44;;;;;;;117.45;108.03;;;;;;;;;;6149496;23;20056;-87
2024/01/07 00:07:28;;;;;;;117.50;108.30;;;;;;;;;;6150592;23;20067;-89
2024/01/07 00:10:12;;;;;;;110.38;101.47;;;;;;;;;;6127386;23;20021;-87
2024/01/07 00:12:55;;;;;;;110.72;101.45;;;;;;;;;;6127676;23;20144;-87
2024/01/07 00:15:39;;;;;;;107.60;98.25;;;;;;;;;;6128199;23;20028;-88
2024/01/07 00:18:24;;;;;;;102.43;94.35;;;;;;;;;;6127720;23;20401;-88
2024/01/07 00:21:08;;;;;;;104.10;95.85;;;;;;;;;;6127519;23;20021;-87
2024/01/07 00:23:51;;;;;;;99.95;91.82;;;;;;;;;;6127338;23;20039;-87
2024/01/07 00:26:35;;;;;;;102.05;93.72;;;;;;;;;;6128409;23;20020;-87
2024/01/07 00:29:19;;;;;;;99.68;91.47;;;;;;;;;;6128109;23;20101;-90
2024/01/07 00:32:03;;;;;;;102.85;94.93;;;;;;;;;;6127968;23;20518;-89
2024/01/07 00:34:47;;;;;;;103.85;95.28;;;;;;;;;;6127672;23;20481;-88
2024/01/07 00:37:33;;;;;;;103.03;94.63;;;;;;;;;;6127303;23;20067;-87
2024/01/07 00:40:17;;;;;;;103.82;95.22;;;;;;;;;;6128648;23;20063;-88
2024/01/07 00:43:01;;;;;;;103.18;95.10;;;;;;;;;;6127455;23;20390;-87
2024/01/07 00:45:45;;;;;;;108.25;99.25;;;;;;;;;;6129016;23;20093;-89
2024/01/07 00:48:29;;;;;;;107.75;98.93;;;;;;;;;;6150945;23;20075;-88
2024/01/07 00:51:13;;;;;;;104.70;95.68;;;;;;;;;;6128263;23;20020;-89
2024/01/07 00:53:57;;;;;;;106.80;98.10;;;;;;;;;;6127499;23;20134;-89
2024/01/07 00:56:41;;;;;;;112.72;102.70;;;;;;;;;;6125997;23;20027;-88
2024/01/07 00:59:24;;;;;;;104.05;94.75;;;;;;;;;;6128620;23;20028;-88
2024/01/07 01:02:11;;;;;;;111.00;101.15;;;;;;;;;;6127939;23;20024;-88
2024/01/07 01:04:57;;;;;;;97.68;88.82;;;;;;;;;;6149113;23;20020;-86
2024/01/07 01:07:41;;;;;;;94.88;85.72;;;;;;;;;;6127654;23;20016;-90
2024/01/07 01:10:26;;;;;;;99.03;89.38;;;;;;;;;;6127151;23;20016;-89
2024/01/07 01:13:19;;;;;;;91.18;82.63;;;;;;;;;;6149849;23;20024;-87
2024/01/07 01:16:03;;;;;;;91.30;82.20;;;;;;;;;;6127480;23;20386;-88
2024/01/07 01:18:47;;;;;;;87.53;78.88;;;;;;;;;;6127668;23;20024;-88
2024/01/07 01:21:31;;;;;;;87.88;78.45;;;;;;;;;;6127873;23;20016;-87
2024/01/07 01:24:15;;;;;;;376.30;99.72;;;;;;;;;;6149385;23;20024;-88
2024/01/07 01:26:59;;;;;;;109.07;81.57;;;;;;;;;;6149925;23;20018;-89
2024/01/07 01:29:43;;;;;;;89.22;79.72;;;;;;;;;;6149378;23;20020;-89
2024/01/07 01:32:27;;;;;;;141.35;82.30;;;;;;;;;;6127463;23;20117;-88
2024/01/07 01:35:11;;;;;;;87.60;78.05;;;;;;;;;;6149723;23;20466;-88
2024/01/07 01:37:55;;;;;;;85.25;76.13;;;;;;;;;;6127267;23;20025;-89
2024/01/07 01:40:39;;;;;;;82.38;72.43;;;;;;;;;;6150166;23;20105;-89
2024/01/07 01:43:26;;;;;;;85.13;76.15;;;;;;;;;;6127079;23;20521;-88
2024/01/07 01:46:12;;;;;;;81.95;74.28;;;;;;;;;;6127803;23;20020;-88
2024/01/07 01:48:56;;;;;;;85.57;77.70;;;;;;;;;;6128264;23;20020;-88
2024/01/07 01:51:41;;;;;;;85.63;77.70;;;;;;;;;;6127408;23;20135;-87
2024/01/07 01:54:25;;;;;;;84.63;77.20;;;;;;;;;;6127301;23;20385;-90
2024/01/07 01:57:13;;;;;;;85.22;77.00;;;;;;;;;;6127042;23;20071;-89
2024/01/07 02:00:02;;;;;;;82.47;74.13;;;;;;;;;;6127274;23;20036;-88
2024/01/07 02:02:46;;;;;;;83.00;75.55;;;;;;;;;;6127421;23;20024;-88
2024/01/07 02:05:30;;;;;;;84.80;76.30;;;;;;;;;;6127736;23;20031;-90
2024/01/07 02:08:14;;;;;;;82.22;73.90;;;;;;;;;;6127528;23;20089;-88
2024/01/07 02:10:57;;;;;;;81.47;73.40;;;;;;;;;;6149356;23;20059;-88
2024/01/07 02:13:41;;;;;;;85.78;76.65;;;;;;;;;;6127901;23;20071;-87
2024/01/07 02:16:25;;;;;;;86.13;77.90;;;;;;;;;;6127033;23;20067;-91
2024/01/07 02:19:12;;;;;;;83.18;74.85;;;;;;;;;;6127079;23;20295;-88
2024/01/07 02:21:56;;;;;;;87.60;78.25;;;;;;;;;;6127763;23;20024;-88
2024/01/07 02:24:40;;;;;;;91.18;81.15;;;;;;;;;;6149056;23;20407;-89
2024/01/07 02:27:24;;;;;;;92.38;83.10;;;;;;;;;;6150276;23;20348;-87
2024/01/07 02:30:08;;;;;;;93.90;83.85;;;;;;;;;;6127534;23;20044;-87
2024/01/07 02:32:54;;;;;;;95.22;84.72;;;;;;;;;;6149672;23;20067;-89
2024/01/07 02:35:38;;;;;;;100.00;88.55;;;;;;;;;;6149352;23;20072;-89
2024/01/07 02:38:22;;;;;;;96.43;85.93;;;;;;;;;;6149479;23;20083;-87
2024/01/07 02:41:06;;;;;;;99.55;78.63;;;;;;;;;;6149821;23;20028;-89
2024/01/07 02:43:50;;;;;;;85.32;76.35;;;;;;;;;;6127130;23;20048;-88
2024/01/07 02:46:33;;;;;;;83.82;75.00;;;;;;;;;;6127562;23;20075;-88
2024/01/07 02:49:17;;;;;;;89.57;76.43;;;;;;;;;;6127721;23;20016;-88
2024/01/07 02:52:01;;;;;;;90.80;77.13;;;;;;;;;;6127770;23;20344;-87
2024/01/07 02:54:45;;;;;;;87.28;78.03;;;;;;;;;;6127717;23;20075;-90
2024/01/07 02:57:29;;;;;;;87.13;78.95;;;;;;;;;;6128596;23;20023;-88
2024/01/07 03:00:13;;;;;;;86.32;77.63;;;;;;;;;;6129265;23;20096;-89
2024/01/07 03:02:57;;;;;;;88.13;77.63;;;;;;;;;;6127899;23;20020;-89
2024/01/07 03:05:41;;;;;;;89.40;80.50;;;;;;;;;;6151167;23;20107;-88
2024/01/07 03:08:25;;;;;;;85.15;77.63;;;;;;;;;;6128967;23;20016;-89
2024/01/07 03:11:09;;;;;;;77.03;68.70;;;;;;;;;;6128415;23;20019;-88
2024/01/07 03:13:53;;;;;;;84.53;76.95;;;;;;;;;;6150556;23;20066;-88
2024/01/07 03:16:37;;;;;;;84.80;76.22;;;;;;;;;;6127666;23;20143;-87
2024/01/07 03:19:21;;;;;;;79.18;72.00;;;;;;;;;;6150415;23;20028;-89
2024/01/07 03:22:07;;;;;;;87.18;77.88;;;;;;;;;;6128755;23;20071;-87
2024/01/07 03:24:50;;;;;;;85.70;75.80;;;;;;;;;;6127869;23;20044;-89
2024/01/07 03:27:35;;;;;;;93.93;76.18;;;;;;;;;;6128714;23;20016;-89
2024/01/07 03:30:19;;;;;;;81.65;73.05;;;;;;;;;;6149895;23;20340;-87
2024/01/07 03:33:03;;;;;;;81.22;73.05;;;;;;;;;;6127872;23;20009;-88
2024/01/07 03:35:47;;;;;;;82.50;74.47;;;;;;;;;;6128436;23;20071;-86
2024/01/07 03:38:31;;;;;;;77.15;69.10;;;;;;;;;;6128001;23;20067;-88
2024/01/07 03:41:18;;;;;;;80.60;72.45;;;;;;;;;;6128443;23;20021;-86
2024/01/07 03:44:03;;;;;;;76.03;67.85;;;;;;;;;;6149643;23;20071;-87
2024/01/07 03:46:47;;;;;;;83.00;71.82;;;;;;;;;;6127365;23;20082;-89
2024/01/07 03:49:31;;;;;;;74.35;67.70;;;;;;;;;;6149253;23;20039;-88
2024/01/07 03:52:15;;;;;;;75.18;67.18;;;;;;;;;;6127996;23;20290;-88
2024/01/07 03:54:58;;;;;;;76.85;68.53;;;;;;;;;;6127447;23;20103;-87
2024/01/07 03:57:43;;;;;;;70.43;62.97;;;;;;;;;;6127561;23;20136;-89
2024/01/07 04:00:27;;;;;;;67.25;60.75;;;;;;;;;;6150042;23;20024;-88
2024/01/07 04:03:10;;;;;;;241.10;76.65;;;;;;;;;;6127044;23;20141;-89
2024/01/07 04:05:55;;;;;;;71.82;65.25;;;;;;;;;;6128205;23;20070;-89
2024/01/07 04:08:38;;;;;;;95.22;68.90;;;;;;;;;;6127835;23;20021;-87
2024/01/07 04:11:22;;;;;;;70.50;64.13;;;;;;;;;;6127703;23;20016;-88
2024/01/07 04:14:06;;;;;;;73.60;65.95;;;;;;;;;;6127716;23;20032;-88
2024/01/07 04:16:50;;;;;;;71.30;65.32;;;;;;;;;;6126219;23;20028;-87
2024/01/07 04:19:36;;;;;;;72.40;65.78;;;;;;;;;;6127696;23;20332;-87
2024/01/07 04:22:20;;;;;;;74.97;68.28;;;;;;;;;;6128335;23;20027;-88
2024/01/07 04:25:07;;;;;;;73.50;67.70;;;;;;;;;;6127635;23;20025;-88
2024/01/07 04:27:52;;;;;;;73.20;66.55;;;;;;;;;;6127987;23;20024;-87
2024/01/07 04:30:36;;;;;;;76.95;69.57;;;;;;;;;;6127090;23;20071;-89
2024/01/07 04:33:19;;;;;;;75.05;67.85;;;;;;;;;;6127880;23;20375;-90
2024/01/07 04:36:04;;;;;;;79.93;72.35;;;;;;;;;;6127708;23;20130;-88
2024/01/07 04:38:48;;;;;;;76.60;69.50;;;;;;;;;;6127788;23;20160;-89
2024/01/07 04:41:32;;;;;;;74.88;67.45;;;;;;;;;;6127861;23;20103;-87
2024/01/07 04:44:16;;;;;;;76.13;68.97;;;;;;;;;;6148683;23;20029;-88
2024/01/07 04:47:00;;;;;;;78.65;71.80;;;;;;;;;;6127669;23;20365;-88
2024/01/07 04:49:43;;;;;;;76.80;69.97;;;;;;;;;;6127506;23;20678;-89
2024/01/07 04:52:28;;;;;;;76.47;69.32;;;;;;;;;;6127666;23;20016;-89
2024/01/07 04:55:11;;;;;;;78.90;72.25;;;;;;;;;;6127876;23;20348;-87
2024/01/07 04:57:56;;;;;;;77.30;70.13;;;;;;;;;;6128015;23;20024;-87
2024/01/07 05:00:39;;;;;;;71.95;65.38;;;;;;;;;;6126125;23;20070;-88
2024/01/07 05:03:23;;;;;;;74.15;66.35;;;;;;;;;;6127442;23;20092;-89
2024/01/07 05:06:10;;;;;;;70.43;64.38;;;;;;;;;;6128061;23;20020;-89
2024/01/07 05:08:54;;;;;;;69.93;63.83;;;;;;;;;;6128011;23;20036;-87
2024/01/07 05:11:41;;;;;;;70.50;64.50;;;;;;;;;;6127844;23;20020;-88
2024/01/07 05:14:26;;;;;;;75.25;69.43;;;;;;;;;;6127262;23;20020;-87
2024/01/07 05:17:10;;;;;;;77.85;72.75;;;;;;;;;;6127159;23;20024;-87
2024/01/07 05:19:54;;;;;;;74.45;69.50;;;;;;;;;;6149307;23;20020;-88
2024/01/07 05:22:38;;;;;;;77.07;71.53;;;;;;;;;;6127067;23;20356;-88
2024/01/07 05:25:21;;;;;;;81.05;75.63;;;;;;;;;;6127760;23;20079;-87
2024/01/07 05:28:06;;;;;;;80.82;75.38;;;;;;;;;;6127720;23;20021;-88
2024/01/07 05:30:50;;;;;;;75.22;70.28;;;;;;;;;;6127451;23;20016;-87
2024/01/07 05:33:34;;;;;;;76.35;70.72;;;;;;;;;;6127129;23;20021;-89
2024/01/07 05:36:18;;;;;;;73.40;68.22;;;;;;;;;;6127377;23;20075;-88
2024/01/07 05:39:02;;;;;;;76.32;71.15;;;;;;;;;;6127198;23;20024;-88
2024/01/07 05:41:46;;;;;;;76.53;70.30;;;;;;;;;;6127524;23;20075;-88
2024/01/07 05:44:30;;;;;;;76.45;71.50;;;;;;;;;;6126850;23;20082;-89
2024/01/07 05:47:14;;;;;;;76.75;71.00;;;;;;;;;;6127962;23;20093;-89
2024/01/07 05:49:58;;;;;;;74.00;68.97;;;;;;;;;;6127519;23;20063;-87
2024/01/07 05:52:43;;;;;;;75.22;70.22;;;;;;;;;;6127726;23;20392;-88
2024/01/07 05:55:27;;;;;;;77.45;71.75;;;;;;;;;;6127691;23;20067;-88
2024/01/07 05:58:10;;;;;;;71.50;66.57;;;;;;;;;;6126974;23;20102;-88
2024/01/07 06:00:54;;;;;;;71.55;66.07;;;;;;;;;;6127791;23;20067;-88
2024/01/07 06:03:38;;;;;;;72.05;66.63;;;;;;;;;;6126805;23;20024;-87
2024/01/07 06:06:22;;;;;;;76.63;71.18;;;;;;;;;;6128012;23;20021;-87
2024/01/07 06:09:07;;;;;;;74.45;69.15;;;;;;;;;;6127276;23;20029;-87
2024/01/07 06:11:51;;;;;;;74.40;68.90;;;;;;;;;;6127430;23;20140;-87
2024/01/07 06:14:35;;;;;;;76.25;69.97;;;;;;;;;;6127252;23;20074;-87
2024/01/07 06:17:19;;;;;;;80.25;73.63;;;;;;;;;;6126827;23;20024;-87
2024/01/07 06:20:03;;;;;;;77.35;71.18;;;;;;;;;;6127864;23;20025;-88
2024/01/07 06:22:46;;;;;;;75.68;70.47;;;;;;;;;;6127393;23;20060;-88
2024/01/07 06:25:30;;;;;;;75.05;69.95;;;;;;;;;;6127752;23;20492;-88
2024/01/07 06:28:14;;;;;;;75.97;70.70;;;;;;;;;;6127291;23;20037;-89
2024/01/07 06:30:58;;;;;;;71.88;66.68;;;;;;;;;;6149596;23;20021;-88
2024/01/07 06:33:43;;;;;;;71.18;66.60;;;;;;;;;;6128951;23;20024;-88
2024/01/07 06:36:27;;;;;;;75.35;69.97;;;;;;;;;;6128990;23;20339;-89
2024/01/07 06:39:11;;;;;;;74.10;69.10;;;;;;;;;;6150972;23;20397;-90
2024/01/07 06:41:55;;;;;;;76.53;71.65;;;;;;;;;;6129130;23;20075;-89
2024/01/07 06:44:39;;;;;;;80.78;75.85;;;;;;;;;;6150442;23;20063;-89
2024/01/07 06:47:22;;;;;;;82.65;76.93;;;;;;;;;;6151381;23;20016;-88
2024/01/07 06:50:07;;;;;;;83.72;78.18;;;;;;;;;;6129679;23;20020;-89
2024/01/07 06:52:50;;;;;;;85.88;80.03;;;;;;;;;;6130020;23;20021;-89
2024/01/07 06:55:35;;;;;;;84.70;78.97;;;;;;;;;;6129079;23;20140;-88
2024/01/07 06:58:19;;;;;;;86.22;80.55;;;;;;;;;;6128898;23;20020;-88
2024/01/07 07:01:02;;;;;;;72.85;67.35;;;;;;;;;;6129427;23;20025;-88
2024/01/07 07:03:46;;;;;;;81.47;73.82;;;;;;;;;;6128807;23;20024;-87
2024/01/07 07:06:30;;;;;;;82.30;76.90;;;;;;;;;;6150946;23;20352;-88
2024/01/07 07:09:15;;;;;;;80.03;74.47;;;;;;;;;;6128654;23;20085;-87
2024/01/07 07:11:59;;;;;;;71.90;66.40;;;;;;;;;;6129011;23;20063;-88
2024/01/07 07:14:43;;;;;;;77.35;72.43;;;;;;;;;;6129336;23;20028;-87
2024/01/07 07:17:27;;;;;;;73.60;68.63;;;;;;;;;;6150343;23;20071;-88
2024/01/07 07:20:11;;;;;;;74.90;70.15;;;;;;;;;;6129615;23;20021;-89
2024/01/07 07:22:55;;;;;;;73.82;69.03;;;;;;;;;;6150885;23;20059;-87
2024/01/07 07:25:39;;;;;;;70.57;65.90;;;;;;;;;;6128371;23;20471;-89
2024/01/07 07:28:23;;;;;;;78.97;73.93;;;;;;;;;;6128853;23;20017;-89
2024/01/07 07:31:06;;;;;;;76.95;71.40;;;;;;;;;;6128226;23;20114;-87
2024/01/07 07:33:51;;;;;;;80.43;74.78;;;;;;;;;;6150880;23;20060;-88
2024/01/07 07:36:35;;;;;;;77.78;71.57;;;;;;;;;;6150219;23;20478;-88
2024/01/07 07:39:25;;;;;;;79.00;73.35;;;;;;;;;;6128972;23;20024;-86
2024/01/07 07:42:10;;;;;;;80.00;73.75;;;;;;;;;;6150800;23;20037;-86
2024/01/07 07:44:54;;;;;;;77.45;71.50;;;;;;;;;;6127837;23;20047;-87
2024/01/07 07:47:40;;;;;;;74.70;69.68;;;;;;;;;;6151156;23;20021;-88
2024/01/07 07:50:24;;;;;;;68.90;64.10;;;;;;;;;;6127526;23;20332;-88
2024/01/07 07:53:08;;;;;;;69.05;63.78;;;;;;;;;;6128036;23;20345;-88
2024/01/07 07:55:52;;;;;;;69.28;64.38;;;;;;;;;;6127518;23;20024;-86
2024/01/07 07:58:35;;;;;;;67.18;62.38;;;;;;;;;;6128840;23;20328;-87
2024/01/07 08:01:19;;;;;;;71.47;65.88;;;;;;;;;;6128507;23;20043;-87
2024/01/07 08:04:05;;;;;;;65.07;60.13;;;;;;;;;;6127249;23;20079;-88
2024/01/07 08:06:49;;;;;;;69.18;64.10;;;;;;;;;;6128237;23;20044;-87
2024/01/07 08:09:33;;;;;;;67.40;62.85;;;;;;;;;;6149512;23;20463;-86
2024/01/07 08:12:17;;;;;;;62.65;58.28;;;;;;;;;;6128301;23;20020;-87
2024/01/07 08:15:03;;;;;;;58.75;54.42;;;;;;;;;;6128567;23;20025;-90
2024/01/07 08:17:47;;;;;;;59.08;54.55;;;;;;;;;;6127170;23;20108;-87
2024/01/07 08:20:31;;;;;;;59.58;55.08;;;;;;;;;;6127730;23;20061;-88
2024/01/07 08:23:15;;;;;;;59.03;54.65;;;;;;;;;;6127088;23;20033;-88
2024/01/07 08:25:59;;;;;;;59.63;54.85;;;;;;;;;;6127749;23;20029;-87
2024/01/07 08:28:43;;;;;;;56.85;52.60;;;;;;;;;;6128097;23;20378;-88
2024/01/07 08:31:27;;;;;;;56.33;52.85;;;;;;;;;;6128449;23;20063;-86
2024/01/07 08:34:11;;;;;;;58.88;54.78;;;;;;;;;;6128449;23;20363;-87
2024/01/07 08:36:55;;;;;;;55.53;51.78;;;;;;;;;;6127561;23;20028;-86
2024/01/07 08:39:39;;;;;;;58.50;54.40;;;;;;;;;;6151398;23;20021;-87
2024/01/07 08:42:23;;;;;;;56.97;53.33;;;;;;;;;;6129019;23;20390;-88
2024/01/07 08:45:07;;;;;;;55.95;52.03;;;;;;;;;;6130811;23;20025;-88
2024/01/07 08:47:51;;;;;;;55.30;51.78;;;;;;;;;;6129634;23;20071;-87
2024/01/07 08:50:35;;;;;;;53.45;50.08;;;;;;;;;;6130791;23;20598;-88
2024/01/07 08:53:22;;;;;;;55.42;52.15;;;;;;;;;;6128944;23;20470;-87
2024/01/07 08:56:06;;;;;;;58.67;54.88;;;;;;;;;;6130505;23;20466;-90
2024/01/07 08:58:52;;;;;;;61.60;57.80;;;;;;;;;;6152337;23;20020;-86
2024/01/07 09:01:36;;;;;;;59.80;55.78;;;;;;;;;;6130261;23;20059;-86
2024/01/07 09:04:19;;;;;;;53.92;49.95;;;;;;;;;;6129048;23;20024;-87
2024/01/07 09:07:03;;;;;;;54.35;50.30;;;;;;;;;;6128345;23;20055;-85
2024/01/07 09:09:47;;;;;;;53.65;50.15;;;;;;;;;;6130045;23;20016;-86
2024/01/07 09:12:31;;;;;;;54.80;51.05;;;;;;;;;;6129485;23;20470;-88
2024/01/07 09:15:17;;;;;;;53.38;50.00;;;;;;;;;;6151930;23;20110;-87
2024/01/07 09:18:01;;;;;;;50.35;45.92;;;;;;;;;;6129570;23;20044;-87
2024/01/07 09:20:45;;;;;;;49.83;46.50;;;;;;;;;;6151641;23;20024;-88
2024/01/07 09:23:31;;;;;;;53.97;50.70;;;;;;;;;;6130795;23;20024;-88
2024/01/07 09:26:15;;;;;;;55.53;52.10;;;;;;;;;;6130498;23;20021;-88
2024/01/07 09:29:01;;;;;;;55.20;51.38;;;;;;;;;;6130746;23;20467;-88
2024/01/07 09:31:44;;;;;;;58.50;54.83;;;;;;;;;;6129133;23;20016;-87
2024/01/07 09:34:28;;;;;;;56.28;52.13;;;;;;;;;;6151842;23;20052;-87
2024/01/07 09:37:12;;;;;;;50.53;47.22;;;;;;;;;;6130435;23;20089;-88
2024/01/07 09:39:56;;;;;;;51.78;48.05;;;;;;;;;;6130077;23;20028;-87
2024/01/07 09:42:40;;;;;;;54.80;51.30;;;;;;;;;;6129974;23;20028;-89
2024/01/07 09:45:25;;;;;;;51.67;48.22;;;;;;;;;;6130332;23;20455;-88
2024/01/07 09:48:09;;;;;;;50.67;47.00;;;;;;;;;;6130449;23;20063;-86
2024/01/07 09:50:53;;;;;;;54.15;50.55;;;;;;;;;;6128854;23;20066;-86
2024/01/07 09:53:39;;;;;;;51.20;47.65;;;;;;;;;;6128465;23;20075;-88
2024/01/07 09:56:24;;;;;;;49.28;45.95;;;;;;;;;;6130867;23;20071;-88
2024/01/07 09:59:09;;;;;;;48.67;45.25;;;;;;;;;;6129259;23;20023;-87
2024/01/07 10:01:53;;;;;;;48.85;45.42;;;;;;;;;;6149796;23;20017;-85
2024/01/07 10:04:39;;;;;;;46.92;44.00;;;;;;;;;;6149566;23;20021;-86
2024/01/07 10:07:23;;;;;;;44.13;40.72;;;;;;;;;;6128536;23;20020;-88
2024/01/07 10:10:16;;;;;;;46.67;43.88;;;;;;;;;;6150584;23;20036;-88
2024/01/07 10:13:01;;;;;;;45.13;42.45;;;;;;;;;;6128025;23;20039;-86
2024/01/07 10:15:44;;;;;;;45.08;42.08;;;;;;;;;;6127867;23;20071;-87
2024/01/07 10:18:31;;;;;;;49.20;46.30;;;;;;;;;;6128340;23;20025;-87
2024/01/07 10:21:14;;;;;;;49.95;47.03;;;;;;;;;;6128352;23;20051;-87
2024/01/07 10:24:11;;;;;;;53.17;49.92;;;;;;;;;;6128953;23;20044;-85
2024/01/07 10:26:55;;;;;;;54.35;51.25;;;;;;;;;;6129076;23;20016;-85
2024/01/07 10:29:39;;;;;;;55.88;52.25;;;;;;;;;;6127874;23;20016;-84
2024/01/07 10:32:29;;;;;;;53.10;49.65;;;;;;;;;;6128483;23;20080;-89
2024/01/07 10:35:16;;;;;;;49.40;46.17;;;;;;;;;;6129788;23;20097;-87
2024/01/07 10:38:01;;;;;;;49.15;46.15;;;;;;;;;;6128227;23;20021;-87
2024/01/07 10:40:45;;;;;;;48.30;45.20;;;;;;;;;;6149972;23;20340;-84
2024/01/07 10:43:32;;;;;;;48.97;46.10;;;;;;;;;;6149027;23;20020;-82
2024/01/07 10:46:17;;;;;;;49.10;46.03;;;;;;;;;;6128241;23;20101;-85
2024/01/07 10:49:04;;;;;;;48.38;45.53;;;;;;;;;;6128513;23;20067;-85
2024/01/07 10:51:56;;;;;;;49.22;46.63;;;;;;;;;;6150526;23;20019;-86
2024/01/07 10:54:42;;;;;;;48.55;45.50;;;;;;;;;;6150572;23;20028;-85
2024/01/07 10:57:41;;;;;;;47.78;44.58;;;;;;;;;;6150379;23;20509;-86
2024/01/07 11:00:25;;;;;;;42.70;39.67;;;;;;;;;;6149731;23;20118;-83
2024/01/07 11:03:09;;;;;;;38.25;35.92;;;;;;;;;;6127884;23;20021;-84
2024/01/07 11:06:02;;;;;;;36.15;33.00;;;;;;;;;;6129356;23;20447;-87
2024/01/07 11:08:54;;;;;;;37.20;34.97;;;;;;;;;;6129229;23;20017;-86
2024/01/07 11:11:41;;;;;;;40.78;38.33;;;;;;;;;;6129113;23;20024;-86
2024/01/07 11:14:39;;;;;;;39.03;36.75;;;;;;;;;;6128922;23;20025;-88
2024/01/07 11:17:39;;;;;;;44.97;41.58;;;;;;;;;;6151522;23;20772;-86
2024/01/07 11:20:58;;;;;;;40.58;38.10;;;;;;;;;;6131071;23;20020;-88
2024/01/07 11:23:47;;;;;;;37.60;35.00;;;;;;;;;;6143719;23;20032;-85
2024/01/07 11:26:31;;;;;;;40.20;37.47;;;;;;;;;;6152824;23;20016;-84
2024/01/07 11:29:18;;;;;;;40.75;38.33;;;;;;;;;;6152700;23;20013;-85
2024/01/07 11:32:02;;;;;;;40.90;38.35;;;;;;;;;;6130271;23;20020;-86
2024/01/07 11:34:49;;;;;;;42.63;39.28;;;;;;;;;;6129920;23;20022;-86
2024/01/07 11:37:33;;;;;;;38.78;36.10;;;;;;;;;;6130044;23;20020;-86
2024/01/07 11:40:18;;;;;;;42.47;39.35;;;;;;;;;;6130219;23;20020;-84
2024/01/07 11:43:04;;;;;;;42.85;39.85;;;;;;;;;;6129703;23;20024;-86
2024/01/07 11:45:51;;;;;;;43.58;39.90;;;;;;;;;;6130222;23;20020;-86
2024/01/07 11:48:36;;;;;;;42.47;38.95;;;;;;;;;;6130874;23;20017;-88
2024/01/07 11:51:20;;;;;;;41.78;38.42;;;;;;;;;;6137700;23;20063;-88
2024/01/07 11:54:05;;;;;;;40.20;37.67;;;;;;;;;;6135342;23;20516;-89
2024/01/07 11:56:48;;;;;;;43.60;40.55;;;;;;;;;;6135705;23;20078;-89
2024/01/07 11:59:34;;;;;;;40.83;38.13;;;;;;;;;;6142351;23;20024;-89
2024/01/07 12:02:18;;;;;;;43.22;40.63;;;;;;;;;;6145801;23;20036;-89
2024/01/07 12:05:06;;;;;;;43.90;41.10;;;;;;;;;;6139068;23;20052;-90
2024/01/07 12:07:57;;;;;;;39.63;36.80;;;;;;;;;;6144209;23;20024;-89
2024/01/07 12:10:42;;;;;;;44.10;40.67;;;;;;;;;;6144543;23;20112;-90
2024/01/07 12:13:25;;;;;;;44.60;41.17;;;;;;;;;;6135466;23;20020;-88
2024/01/07 12:16:10;;;;;;;46.17;42.60;;;;;;;;;;6142320;23;20020;-89
2024/01/07 12:18:54;;;;;;;43.13;40.08;;;;;;;;;;6146725;23;20024;-89
2024/01/07 12:21:40;;;;;;;42.65;39.80;;;;;;;;;;6144897;23;20017;-88
2024/01/07 12:24:27;;;;;;;44.05;40.72;;;;;;;;;;6134191;23;20024;-89
2024/01/07 12:27:14;;;;;;;42.95;40.08;;;;;;;;;;6132626;23;20020;-90
2024/01/07 12:29:58;;;;;;;43.30;40.05;;;;;;;;;;6134745;23;20040;-89
2024/01/07 12:32:43;;;;;;;40.88;38.00;;;;;;;;;;6138838;23;20339;-89
2024/01/07 12:35:28;;;;;;;43.33;40.03;;;;;;;;;;6135200;23;20040;-89
2024/01/07 12:38:12;;;;;;;45.97;42.63;;;;;;;;;;6131805;23;20344;-87
2024/01/07 12:40:56;;;;;;;44.80;41.83;;;;;;;;;;6130389;23;20024;-88
2024/01/07 12:43:40;;;;;;;43.03;40.13;;;;;;;;;;6129933;23;20090;-86
2024/01/07 12:46:25;;;;;;;44.92;42.22;;;;;;;;;;6129207;23;20100;-85
2024/01/07 12:49:09;;;;;;;39.13;36.75;;;;;;;;;;6151333;23;20340;-86
2024/01/07 12:51:53;;;;;;;42.60;39.95;;;;;;;;;;6129085;23;20055;-88
2024/01/07 12:58:06;;;;;;;41.55;39.25;;;;;;;;;;6151260;23;20514;-86
2024/01/07 13:00:50;;;;;;;42.55;39.65;;;;;;;;;;6150189;23;20245;-82
2024/01/07 13:03:46;;;;;;;44.40;41.47;;;;;;;;;;6150227;23;20156;-87
2024/01/07 13:06:36;;;;;;;44.55;42.15;;;;;;;;;;6130128;23;20336;-85
2024/01/07 13:09:19;;;;;;;43.00;40.58;;;;;;;;;;6129066;23;20048;-85
2024/01/07 13:12:04;;;;;;;42.97;39.95;;;;;;;;;;6129211;23;20071;-84
2024/01/07 13:14:51;;;;;;;42.85;40.30;;;;;;;;;;6133720;23;20024;-89
2024/01/07 13:17:35;;;;;;;42.22;39.88;;;;;;;;;;6141984;23;20025;-89
2024/01/07 13:20:19;;;;;;;45.75;42.85;;;;;;;;;;6142024;23;20046;-89
2024/01/07 13:23:04;;;;;;;45.05;42.45;;;;;;;;;;6142732;23;20024;-89
2024/01/07 13:25:48;;;;;;;45.03;42.67;;;;;;;;;;6141225;23;20024;-89
2024/01/07 13:28:32;;;;;;;41.53;39.50;;;;;;;;;;6143296;23;20020;-89
2024/01/07 13:31:16;;;;;;;45.25;42.88;;;;;;;;;;6142373;23;20017;-89
2024/01/07 13:34:00;;;;;;;42.75;40.35;;;;;;;;;;6143100;23;20032;-90
2024/01/07 13:36:44;;;;;;;41.10;38.95;;;;;;;;;;6142954;23;20093;-89
2024/01/07 13:39:30;;;;;;;42.90;40.50;;;;;;;;;;6142802;23;20077;-89
2024/01/07 13:42:14;;;;;;;41.42;38.20;;;;;;;;;;6142330;23;20024;-90
2024/01/07 13:44:58;;;;;;;41.50;39.25;;;;;;;;;;6141749;23;20044;-91
2024/01/07 13:47:42;;;;;;;43.45;41.08;;;;;;;;;;6142036;23;20065;-89
2024/01/07 13:50:27;;;;;;;46.72;44.13;;;;;;;;;;6141840;23;20066;-89
2024/01/07 13:53:11;;;;;;;42.85;40.25;;;;;;;;;;6140914;23;20021;-90
2024/01/07 13:55:57;;;;;;;40.50;38.30;;;;;;;;;;6140719;23;20024;-89
2024/01/07 13:58:43;;;;;;;38.38;36.38;;;;;;;;;;6140653;23;20348;-89
2024/01/07 14:01:30;;;;;;;34.72;33.03;;;;;;;;;;6141081;23;20024;-89
2024/01/07 14:04:14;;;;;;;37.78;35.53;;;;;;;;;;6142096;23;20048;-89
2024/01/07 14:06:59;;;;;;;34.50;32.60;;;;;;;;;;6141939;23;20083;-89
2024/01/07 14:09:43;;;;;;;37.15;34.78;;;;;;;;;;6141571;23;20031;-90
2024/01/07 14:12:30;;;;;;;37.88;35.88;;;;;;;;;;6141275;23;20048;-90
2024/01/07 14:15:17;;;;;;;37.15;35.15;;;;;;;;;;6141541;23;20037;-89
2024/01/07 14:18:01;;;;;;;37.58;35.53;;;;;;;;;;6140632;23;20048;-89
2024/01/07 14:20:45;;;;;;;39.58;37.25;;;;;;;;;;6141021;23;20110;-90
2024/01/07 14:23:37;;;;;;;41.60;39.17;;;;;;;;;;6141250;23;20054;-89
2024/01/07 14:26:23;;;;;;;44.20;41.70;;;;;;;;;;6139990;23;20021;-89
2024/01/07 14:29:07;;;;;;;44.42;42.15;;;;;;;;;;6139999;23;20020;-90
2024/01/07 14:31:51;;;;;;;42.05;39.85;;;;;;;;;;6139819;23;20021;-89
2024/01/07 14:34:37;;;;;;;47.67;44.78;;;;;;;;;;6139667;23;20024;-89
2024/01/07 14:37:23;;;;;;;46.60;43.53;;;;;;;;;;6140762;23;20024;-90
2024/01/07 14:40:07;;;;;;;43.83;41.63;;;;;;;;;;6140528;23;20071;-89
2024/01/07 14:42:54;;;;;;;44.15;40.13;;;;;;;;;;6140338;23;20044;-88
2024/01/07 14:45:39;;;;;;;43.05;40.75;;;;;;;;;;6139868;23;20019;-90
2024/01/07 14:48:23;;;;;;;44.20;41.85;;;;;;;;;;6139620;23;20020;-88
2024/01/07 14:51:06;;;;;;;41.33;39.15;;;;;;;;;;6140334;23;20024;-89
2024/01/07 14:53:51;;;;;;;40.97;38.83;;;;;;;;;;6140265;23;20024;-89
2024/01/07 14:56:35;;;;;;;41.13;38.97;;;;;;;;;;6141505;23;20025;-88
2024/01/07 14:59:19;;;;;;;42.42;39.35;;;;;;;;;;6141308;23;20020;-90
2024/01/07 15:02:06;;;;;;;41.30;39.05;;;;;;;;;;6141392;23;20025;-89
2024/01/07 15:04:52;;;;;;;42.70;40.38;;;;;;;;;;6140685;23;20071;-89
2024/01/07 15:07:36;;;;;;;41.55;39.10;;;;;;;;;;6142024;23;20096;-88
2024/01/07 15:10:20;;;;;;;41.00;38.90;;;;;;;;;;6141587;23;20017;-89
2024/01/07 15:13:04;;;;;;;41.17;38.78;;;;;;;;;;6141320;23;20043;-89
2024/01/07 15:15:48;;;;;;;41.10;38.67;;;;;;;;;;6141707;23;20399;-89
2024/01/07 15:18:32;;;;;;;39.17;36.60;;;;;;;;;;6141298;23;20082;-89
2024/01/07 15:21:17;;;;;;;42.42;40.05;;;;;;;;;;6141591;23;20025;-90
2024/01/07 15:24:00;;;;;;;42.95;39.63;;;;;;;;;;6141539;23;20032;-89
2024/01/07 15:26:45;;;;;;;45.28;42.38;;;;;;;;;;6140927;23;20025;-89
2024/01/07 15:29:31;;;;;;;42.03;39.33;;;;;;;;;;6140974;23;20340;-88
2024/01/07 15:32:15;;;;;;;38.55;36.05;;;;;;;;;;6141148;23;20016;-88
2024/01/07 15:34:59;;;;;;;42.80;39.65;;;;;;;;;;6140893;23;20023;-91
2024/01/07 15:37:44;;;;;;;42.75;39.92;;;;;;;;;;6140740;23;20024;-88
2024/01/07 15:40:28;;;;;;;39.55;37.25;;;;;;;;;;6139416;23;20022;-89
2024/01/07 15:43:19;;;;;;;38.47;36.35;;;;;;;;;;6140127;23;20024;-89
2024/01/07 15:46:04;;;;;;;38.58;36.05;;;;;;;;;;6138867;23;20063;-89
2024/01/07 15:48:48;;;;;;;36.67;34.30;;;;;;;;;;6139362;23;20016;-89
2024/01/07 15:51:32;;;;;;;45.50;42.53;;;;;;;;;;6140272;23;20022;-90
2024/01/07 15:54:16;;;;;;;43.75;41.10;;;;;;;;;;6140690;23;20020;-91
2024/01/07 15:57:02;;;;;;;41.70;39.00;;;;;;;;;;6141161;23;20071;-89
2024/01/07 15:59:46;;;;;;;40.05;37.58;;;;;;;;;;6131593;23;20023;-86
2024/01/07 16:02:30;;;;;;;37.15;34.92;;;;;;;;;;6151609;23;20025;-86